ADDS METAR Data INFO
IDs: Format: Raw Decoded Include TAF

Data at: 0641 UTC 23 Feb 2018

KORB 230633Z AUTO 15003KT 2SM -SN BKN009 OVC015 M07/M08 A3021 RMK AO2
KORB 230613Z AUTO 00000KT 2SM -SN BKN019 OVC023 M07/M09 A3021 RMK AO2
KORB 230553Z AUTO 00000KT 2 1/2SM -SN SCT012 BKN025 OVC035 M07/M09 A3021 RMK AO2
KORB 230533Z AUTO 00000KT 2SM -SN BKN014 BKN024 OVC033 M07/M09 A3022 RMK AO2
KORB 230513Z AUTO 15003KT 3SM -SN SCT014 BKN024 OVC055 M06/M09 A3024 RMK AO2
KORB 230453Z AUTO 17004KT 5SM -SN SCT024 OVC039 M06/M11 A3024 RMK AO2
KORB 230433Z AUTO 16007KT 10SM BKN039 OVC055 M05/M13 A3024 RMK AO2
KORB 230413Z AUTO 15003KT 10SM SCT019 SCT043 OVC055 M05/M13 A3025 RMK AO2
KORB 230353Z AUTO 15005KT 10SM BKN019 BKN044 OVC055 M05/M13 A3026 RMK AO2
KORB 230333Z AUTO 15004KT 10SM OVC019 M05/M13 A3027 RMK AO2
KORB 230313Z AUTO 15004KT 10SM OVC019 M05/M14 A3027 RMK AO2
KORB 230253Z AUTO 14004KT 10SM BKN017 M05/M13 A3027 RMK AO2
KORB 230233Z AUTO 15004KT 10SM CLR M05/M14 A3028 RMK AO2
KORB 230213Z AUTO 14005KT 10SM CLR M04/M14 A3029 RMK AO2
KORB 230153Z AUTO 14004KT 10SM CLR M04/M16 A3030 RMK AO2
KORB 230133Z AUTO 14004KT 10SM SCT070 M04/M17 A3031 RMK AO2
KORB 230113Z AUTO 00000KT 10SM SCT046 BKN060 M05/M17 A3033 RMK AO2
KORB 230053Z AUTO 16004KT 10SM SCT041 BKN048 BKN060 M04/M18 A3033 RMK AO2
KORB 230033Z AUTO 16005KT 10SM OVC060 M04/M18 A3034 RMK AO2
KORB 230013Z AUTO 16005KT 10SM OVC060 M03/M18 A3034 RMK AO2
KORB 222353Z AUTO 17006KT 10SM OVC060 M03/M18 A3035 RMK AO2
KORB 222333Z AUTO 17005KT 10SM OVC050 M03/M18 A3035 RMK AO2
KORB 222313Z AUTO 16006KT 10SM OVC050 M03/M18 A3034 RMK AO2
KORB 222253Z AUTO 18004KT 10SM OVC050 M02/M19 A3035 RMK AO2
KORB 222233Z AUTO 18005KT 10SM OVC060 M02/M18 A3035 RMK AO2
KORB 222213Z AUTO 17004KT 10SM BKN060 OVC070 M02/M18 A3036 RMK AO2
KORB 222153Z AUTO 17004KT 10SM BKN060 OVC070 M02/M18 A3035 RMK AO2
KORB 222133Z AUTO 19006KT 10SM OVC070 M02/M19 A3036 RMK AO2
KORB 222113Z AUTO 21006KT 10SM OVC070 M01/M20 A3037 RMK AO2
KORB 222053Z AUTO 18008KT 10SM BKN070 M02/M20 A3038 RMK AO2
KORB 222033Z AUTO 18005KT 10SM CLR M01/M21 A3037 RMK AO2
KORB 222013Z AUTO 18006KT 10SM CLR M01/M21 A3038 RMK AO2
KORB 221953Z AUTO 21005KT 10SM CLR M02/M20 A3039 RMK AO2
KORB 221933Z AUTO 17005KT 10SM CLR M02/M19 A3040 RMK AO2
KORB 221913Z AUTO 15005KT 10SM CLR M03/M19 A3041 RMK AO2
KORB 221853Z AUTO 17010KT 10SM CLR M03/M19 A3042 RMK AO2
KORB 221833Z AUTO 15006KT 10SM CLR M03/M19 A3042 RMK AO2
KORB 221813Z AUTO 15005KT 10SM CLR M04/M19 A3043 RMK AO2
KORB 221753Z AUTO 16009KT 10SM CLR M06/M18 A3045 RMK AO2
KORB 221733Z AUTO 13009G14KT 10SM CLR M07/M19 A3046 RMK AO2
KORB 221713Z AUTO 16006KT 10SM CLR M08/M19 A3047 RMK AO2
KORB 221653Z AUTO 17006KT 10SM CLR M08/M19 A3047 RMK AO2
KORB 221633Z AUTO 15006KT 10SM CLR M09/M19 A3048 RMK AO2
KORB 221613Z AUTO 16005KT 10SM CLR M09/M19 A3049 RMK AO2
KORB 221553Z AUTO 16004KT 10SM CLR M11/M19 A3050 RMK AO2
KORB 221533Z AUTO 15004KT 10SM CLR M12/M19 A3050 RMK AO2
KORB 221513Z AUTO 15004KT 10SM CLR M13/M19 A3050 RMK AO2
KORB 221453Z AUTO 15003KT 10SM CLR M15/M20 A3050 RMK AO2
KORB 221433Z AUTO 15003KT 10SM CLR M16/M20 A3050 RMK AO2
KORB 221413Z AUTO 12003KT 10SM CLR M19/M21 A3050 RMK AO2
KORB 221353Z AUTO 00000KT 10SM CLR M19/M22 A3050 RMK AO2
KORB 221333Z AUTO 00000KT 10SM CLR M20/M23 A3051 RMK AO2
KORB 221313Z AUTO 12003KT 10SM CLR M23/M25 A3050 RMK AO2
KORB 221253Z AUTO 00000KT 10SM CLR M24/M27 A3051 RMK AO2
KORB 221233Z AUTO 00000KT 10SM CLR M21/M24 A3051 RMK AO2
KORB 221213Z AUTO 00000KT 10SM CLR M19/M22 A3050 RMK AO2
KORB 221153Z AUTO 00000KT 10SM CLR M19/M22 A3051 RMK AO2
KORB 221133Z AUTO 13003KT 10SM CLR M19/M22 A3050 RMK AO2
KORB 221113Z AUTO 00000KT 10SM CLR M19/M22 A3050 RMK AO2
KORB 221053Z AUTO 00000KT 10SM CLR M24/M27 A3051 RMK AO2
KORB 221033Z AUTO 00000KT 10SM CLR M23/M26 A3050 RMK AO2
KORB 221013Z AUTO 00000KT 10SM SCT090 M24/M27 A3049 RMK AO2
KORB 220953Z AUTO 00000KT 10SM SCT090 M20/M23 A3050 RMK AO2
KORB 220933Z AUTO 00000KT 10SM CLR M19/M22 A3051 RMK AO2
KORB 220913Z AUTO 00000KT 10SM CLR M17/M21 A3051 RMK AO2
KORB 220853Z AUTO 00000KT 10SM CLR M18/M21 A3052 RMK AO2
KORB 220833Z AUTO 00000KT 10SM CLR M17/M21 A3052 RMK AO2
KORB 220813Z AUTO 00000KT 10SM CLR M17/M21 A3052 RMK AO2
KORB 220753Z AUTO 14003KT 10SM CLR M17/M21 A3053 RMK AO2
KORB 220733Z AUTO 00000KT 10SM CLR M17/M21 A3053 RMK AO2
KORB 220713Z AUTO 00000KT 10SM CLR M17/M21 A3053 RMK AO2
KORB 220653Z AUTO 00000KT 10SM CLR M16/M20 A3053 RMK AO2
KORB 220634Z AUTO 15003KT 10SM CLR M17/M20 A3052 RMK AO2
KORB 220613Z AUTO 00000KT 10SM CLR M16/M20 A3052 RMK AO2
KORB 220553Z AUTO 00000KT 10SM CLR M16/M20 A3052 RMK AO2
KORB 220533Z AUTO 00000KT 10SM CLR M16/M19 A3051 RMK AO2
KORB 220513Z AUTO 00000KT 10SM CLR M15/M19 A3051 RMK AO2
KORB 220453Z AUTO 00000KT 10SM CLR M15/M19 A3051 RMK AO2
KORB 220433Z AUTO 00000KT 10SM CLR M15/M19 A3051 RMK AO2
KORB 220413Z AUTO 00000KT 10SM CLR M13/M20 A3050 RMK AO2
KORB 220353Z AUTO 00000KT 10SM CLR M12/M20 A3049 RMK AO2
KORB 220033Z AUTO 00000KT 10SM CLR M09/M18 A3046 RMK AO2
KORB 220013Z AUTO 21004KT 10SM CLR M09/M18 A3045 RMK AO2
KORB 212353Z AUTO 22005KT 10SM CLR M08/M18 A3046 RMK AO2
KORB 212333Z AUTO 22005KT 10SM CLR M08/M18 A3046 RMK AO2
KORB 212313Z AUTO 23006KT 10SM CLR M07/M18 A3045 RMK AO2
KORB 212253Z AUTO 23007KT 10SM CLR M06/M17 A3044 RMK AO2
KORB 212233Z AUTO 25006KT 10SM CLR M06/M18 A3044 RMK AO2
KORB 212213Z AUTO 25008G15KT 10SM CLR M06/M18 A3044 RMK AO2
KORB 212153Z AUTO 25008KT 10SM CLR M06/M18 A3044 RMK AO2
KORB 212133Z AUTO 23007G16KT 10SM CLR M06/M18 A3043 RMK AO2
KORB 212113Z AUTO 25006KT 10SM CLR M06/M18 A3042 RMK AO2
KORB 212053Z AUTO 25006KT 10SM CLR M06/M17 A3042 RMK AO2
KORB 212033Z AUTO 26007KT 220V280 10SM CLR M06/M17 A3043 RMK AO2
KORB 212013Z AUTO 23008G15KT 190V250 10SM CLR M06/M17 A3043 RMK AO2
KORB 211953Z AUTO 22006KT 10SM CLR M06/M17 A3042 RMK AO2
KORB 211933Z AUTO 23005KT 10SM CLR M07/M17 A3041 RMK AO2
KORB 211913Z AUTO 24006KT 10SM CLR M07/M17 A3041 RMK AO2
KORB 211853Z AUTO 24005KT 10SM CLR M08/M17 A3041 RMK AO2